Oosterdam — PBKH — position and weather

sailwx.info

Track history (hours):
 
Tides and Currents Weather Stations Pressure Air Temp Water Temp Dewpoint Dewpoint Depression Visibility Wind Speed Wind Dir Waves Ship Positions

Oosterdam

Operator: Holland America Line

Last reported at 2018-Oct-24 05:03 UTC. Time now 2018-Oct-24 05:52 UTC.
Position N 43°44' E 007°29'.

MMSI: 245417000.

Date/timePositionNaut miles runAvg speedWind from/ knotsBaromVisibWave heightAir tempDewpointWater temp
2018-Oct-24 05:03N 43°44' E 007°29'110.6
2018-Oct-24 05:00N 43°44' E 007°30'611.2
2018-Oct-24 04:30N 43°43' E 007°38'511.0
2018-Oct-24 04:03N 43°43' E 007°44'110.9
2018-Oct-24 04:00N 43°43' E 007°45'611.2
2018-Oct-24 03:30N 43°42' E 007°53'511.5
2018-Oct-24 03:03N 43°41' E 008°00'111.2
2018-Oct-24 03:00N 43°41' E 008°01'611.2
2018-Oct-24 02:30N 43°41' E 008°08'511.0
2018-Oct-24 02:03N 43°40' E 008°15'111.3
2018-Oct-24 02:00N 43°40' E 008°16'611.0
2018-Oct-24 01:30N 43°39' E 008°24'511.9
2018-Oct-24 01:03N 43°39' E 008°31'113.0
2018-Oct-24 01:00N 43°39' E 008°32'612.0
2018-Oct-24 00:30N 43°38' E 008°40'4 9.9
2018-Oct-24 00:03N 43°38' E 008°46'110.3
2018-Oct-24 00:00N 43°38' E 008°47'510.2
2018-Oct-23 23:30N 43°37' E 008°54'510.3
2018-Oct-23 23:03N 43°36' E 009°00'110.7
2018-Oct-23 23:00N 43°36' E 009°01'611.4
2018-Oct-23 22:30N 43°35' E 009°09'511.5
2018-Oct-23 22:03N 43°35' E 009°16'111.7
2018-Oct-23 22:00N 43°35' E 009°17'611.6
2018-Oct-23 21:30N 43°34' E 009°25'511.6
2018-Oct-23 21:03N 43°33' E 009°32'111.8
2018-Oct-23 21:00N 43°33' E 009°33'611.5
2018-Oct-23 20:30N 43°33' E 009°40'511.5
2018-Oct-23 20:03N 43°32' E 009°48'111.5
2018-Oct-23 20:00N 43°32' E 009°48'2124.8
2018-Oct-23 20:00N 43°30' E 009°48'612.2 320 / 141019.710.8 19.311.821.1
2018-Oct-23 19:30N 43°31' E 009°56'511.2
2018-Oct-23 19:03N 43°30' E 010°03'111.1
2018-Oct-23 19:00N 43°30' E 010°04'611.0
2018-Oct-23 18:30N 43°31' E 010°11'4 9.9
2018-Oct-23 18:03N 43°32' E 010°17'0 6.2
2018-Oct-23 18:01N 43°32' E 010°17'1 1.6
2018-Oct-23 17:30N 43°33' E 010°18'0 0.0
2018-Oct-23 17:03N 43°33' E 010°18'0 0.0
2018-Oct-23 16:59N 43°33' E 010°18'0 0.0
2018-Oct-23 16:29N 43°33' E 010°18'0 0.0
2018-Oct-23 16:02N 43°33' E 010°18'0 0.1
2018-Oct-23 16:00N 43°33' E 010°18'0 0.0
2018-Oct-23 15:26N 43°33' E 010°18'0 0.0
2018-Oct-23 15:03N 43°33' E 010°18'0 0.0
2018-Oct-23 15:00N 43°33' E 010°18'0 0.0
2018-Oct-23 14:03N 43°33' E 010°18'5102.9
2018-Oct-23 14:00N 43°30' E 010°12'510.4 300 / 121019.010.8 20.011.022.5
2018-Oct-23 13:30N 43°33' E 010°18'0 0.0
2018-Oct-23 13:03N 43°33' E 010°18'0 0.0
2018-Oct-23 13:00N 43°33' E 010°18'0 0.0
2018-Oct-23 12:27N 43°33' E 010°18'0 0.0
2018-Oct-23 12:03N 43°33' E 010°18'0 0.0
2018-Oct-23 12:00N 43°33' E 010°18'0 0.0
2018-Oct-23 11:30N 43°33' E 010°18'0 0.0
2018-Oct-23 11:03N 43°33' E 010°18'0 0.0
2018-Oct-23 11:00N 43°33' E 010°18'0 0.0
2018-Oct-23 10:29N 43°33' E 010°18'0 0.0
2018-Oct-23 10:03N 43°33' E 010°18'0 0.0
2018-Oct-23 10:00N 43°33' E 010°18'0 0.0
2018-Oct-23 09:29N 43°33' E 010°18'0 0.0
2018-Oct-23 09:03N 43°33' E 010°18'0 0.0
2018-Oct-23 08:57N 43°33' E 010°18'0 0.0
2018-Oct-23 08:30N 43°33' E 010°18'0 0.0
2018-Oct-23 08:02N 43°33' E 010°18'0 0.0
2018-Oct-23 07:56N 43°33' E 010°18'0 0.0
2018-Oct-23 07:31N 43°33' E 010°18'0 0.0
2018-Oct-23 07:04N 43°33' E 010°18'0 0.0
2018-Oct-23 07:01N 43°33' E 010°18'0 0.0
2018-Oct-23 06:31N 43°33' E 010°18'0 0.0
2018-Oct-23 06:04N 43°33' E 010°18'0 0.0
2018-Oct-23 06:01N 43°33' E 010°18'0 0.3
2018-Oct-23 05:31N 43°33' E 010°18'2 4.8
2018-Oct-23 05:04N 43°32' E 010°16'0 5.7
2018-Oct-23 05:01N 43°31' E 010°15'5 9.1
2018-Oct-23 04:31N 43°27' E 010°13'512.0
2018-Oct-23 04:04N 43°22' E 010°11'111.8
2018-Oct-23 04:01N 43°21' E 010°11'612.2
2018-Oct-23 03:31N 43°15' E 010°10'612.8
2018-Oct-23 03:04N 43°10' E 010°08'113.0
2018-Oct-23 03:01N 43°09' E 010°08'612.6
2018-Oct-23 02:31N 43°03' E 010°06'612.8
2018-Oct-23 02:04N 42°57' E 010°05'112.7
2018-Oct-23 02:01N 42°57' E 010°04'612.4
2018-Oct-23 01:31N 42°50' E 010°03'511.5
2018-Oct-23 01:04N 42°45' E 010°01'110.4
2018-Oct-23 01:01N 42°45' E 010°01'712.1
2018-Oct-23 00:28N 42°41' E 010°08'612.8
2018-Oct-23 00:01N 42°37' E 010°14'012.3
2018-Oct-23 00:01N 42°37' E 010°14'612.4
2018-Oct-22 23:31N 42°33' E 010°20'612.8
2018-Oct-22 23:04N 42°29' E 010°27'312.6
2018-Oct-22 22:48N 42°27' E 010°30'412.6
2018-Oct-22 22:30N 42°25' E 010°34'54 7.1
2018-Oct-22 15:00N 42°06' E 011°42'0 0.0 020 / 361011.010.8 16.1 6.820.0
2018-Oct-22 06:00N 42°06' E 011°42'10211.3 020 / 141013.010.8 12.0 7.120.0
2018-Oct-21 21:00N 40°54' E 013°18'813.1 340 / 601016.1 2.2 15.312.422.3
2018-Oct-21 20:24N 40°53' E 013°28'615.8
2018-Oct-21 20:03N 40°50' E 013°34'115.9
2018-Oct-21 20:00N 40°49' E 013°34'2110.6
2018-Oct-21 20:00N 40°48' E 013°36'612.6 070 / 301014.010.8 20.012.022.0
2018-Oct-21 19:30N 40°43' E 013°41'715.3
2018-Oct-21 19:03N 40°38' E 013°47'115.3
2018-Oct-21 19:00N 40°37' E 013°48'714.4
2018-Oct-21 18:30N 40°36' E 013°57'614.0
2018-Oct-21 18:03N 40°39' E 014°04'115.2
2018-Oct-21 18:00N 40°39' E 014°05'815.2
2018-Oct-21 17:30N 40°45' E 014°13'613.0
2018-Oct-21 17:04N 40°49' E 014°17'0 6.7
2018-Oct-21 17:01N 40°50' E 014°17'1 1.8
2018-Oct-21 16:30N 40°50' E 014°16'0 0.0
2018-Oct-21 16:03N 40°50' E 014°16'0 0.0
2018-Oct-21 16:00N 40°50' E 014°16'0 0.0
2018-Oct-21 15:30N 40°50' E 014°16'0 0.0
2018-Oct-21 15:03N 40°50' E 014°16'0 0.1
2018-Oct-21 15:00N 40°50' E 014°16'0 0.0
2018-Oct-21 14:03N 40°50' E 014°16'0 0.0
2018-Oct-21 13:30N 40°50' E 014°16'0 0.0
2018-Oct-21 13:03N 40°50' E 014°16'0 0.0
2018-Oct-21 13:00N 40°50' E 014°16'0 0.0
2018-Oct-21 12:30N 40°50' E 014°16'0 0.0
2018-Oct-21 12:03N 40°50' E 014°16'0 0.0
2018-Oct-21 12:00N 40°50' E 014°16'0 0.0
2018-Oct-21 11:30N 40°50' E 014°16'0 0.0
2018-Oct-21 11:01N 40°50' E 014°16'0 0.0
2018-Oct-21 11:00N 40°50' E 014°16'0 0.0
2018-Oct-21 10:30N 40°50' E 014°16'0 0.0
2018-Oct-21 10:03N 40°50' E 014°16'0 0.1
2018-Oct-21 10:00N 40°50' E 014°16'0 0.0
2018-Oct-21 09:30N 40°50' E 014°16'0 0.0
2018-Oct-21 09:03N 40°50' E 014°16'0 0.0
2018-Oct-21 09:00N 40°50' E 014°16'0 0.0
2018-Oct-21 08:30N 40°50' E 014°16'0 0.0
2018-Oct-21 08:03N 40°50' E 014°16'0 0.1
2018-Oct-21 08:00N 40°50' E 014°16'0 0.0
2018-Oct-21 07:30N 40°50' E 014°16'0 0.0
2018-Oct-21 07:03N 40°50' E 014°16'0 0.0
2018-Oct-21 07:00N 40°50' E 014°16'0 0.0
2018-Oct-21 06:30N 40°50' E 014°16'0 0.0
2018-Oct-21 06:03N 40°50' E 014°16'0 0.0
2018-Oct-21 06:00N 40°50' E 014°16'0 0.1
2018-Oct-21 05:30N 40°50' E 014°16'2 3.6
2018-Oct-21 05:03N 40°49' E 014°17'0 8.2
2018-Oct-21 05:00N 40°49' E 014°17'510.8
2018-Oct-21 04:30N 40°44' E 014°14'511.8
2018-Oct-21 04:03N 40°39' E 014°11'111.8
2018-Oct-21 04:00N 40°38' E 014°11'612.0
2018-Oct-21 03:30N 40°33' E 014°08'511.2
2018-Oct-21 03:03N 40°28' E 014°10'112.3
2018-Oct-21 03:00N 40°28' E 014°10'612.1
2018-Oct-21 02:30N 40°22' E 014°13'512.1
2018-Oct-21 02:03N 40°17' E 014°17'112.2
2018-Oct-21 02:00N 40°17' E 014°17'612.2
2018-Oct-21 01:30N 40°11' E 014°21'512.2
2018-Oct-21 01:03N 40°07' E 014°24'111.9
2018-Oct-21 01:00N 40°06' E 014°25'612.1
2018-Oct-21 00:30N 40°01' E 014°28'512.1
2018-Oct-21 00:03N 39°56' E 014°32'112.2
2018-Oct-21 00:00N 39°55' E 014°32'712.1
2018-Oct-20 23:28N 39°50' E 014°36'5512.2
2018-Oct-20 19:00N 39°00' E 015°06'1512.9 290 / 51020.410.8 21.318.523.0
2018-Oct-20 17:49N 38°48' E 015°18'412.5
2018-Oct-20 17:27N 38°44' E 015°21'612.4
2018-Oct-20 17:00N 38°39' E 015°24'3201.2
2018-Oct-20 17:00N 38°36' E 015°24'4 7.5 020 / 71020.110.8 21.618.023.0
2018-Oct-20 16:31N 38°34' E 015°28'612.0
2018-Oct-20 16:03N 38°29' E 015°32'111.9
2018-Oct-20 16:00N 38°29' E 015°32'611.6
2018-Oct-20 15:30N 38°25' E 015°37'511.8
2018-Oct-20 15:03N 38°21' E 015°42'111.9
2018-Oct-20 15:00N 38°20' E 015°42'510.3
2018-Oct-20 14:30N 38°15' E 015°40'611.5
2018-Oct-20 14:00N 38°10' E 015°37'812.4
2018-Oct-20 13:24N 38°03' E 015°35'411.5
2018-Oct-20 13:03N 37°59' E 015°36'111.8
2018-Oct-20 13:00N 37°58' E 015°37'612.2
2018-Oct-20 12:30N 37°53' E 015°41'511.2
2018-Oct-20 12:03N 37°50' E 015°46'112.1
2018-Oct-20 12:00N 37°50' E 015°46'612.3
2018-Oct-20 11:29N 37°49' E 015°54'19112.3
2018-Oct-19 20:00N 37°30' E 019°54'103 4.1 020 / 171016.110.8 21.918.322.4
2018-Oct-18 19:00N 39°12' E 020°12'189 7.9 040 / 51015.710.8 20.814.723.0
2018-Oct-17 19:00N 42°00' E 018°18'48 3.0 320 / 61017.010.8 20.417.221.0
2018-Oct-17 03:00N 42°36' E 017°36'3517.7 110 / 61022.010.8 19.815.921.0
2018-Oct-17 01:00N 42°36' E 016°48'9 8.8 110 / 91022.010.8 20.016.221.0
2018-Oct-17 00:00N 42°36' E 017°00'9 8.8 140 / 71022.010.8 20.316.321.0
2018-Oct-16 23:00N 42°36' E 016°48'4113.8 140 / 151022.010.8 20.715.521.0
2018-Oct-16 20:00N 42°48' E 015°54'2512.5 120 / 111020.910.8 20.717.121.0
2018-Oct-16 18:00N 43°00' E 015°24'83 8.6 120 / 161020.310.8 20.817.221.0
2018-Oct-16 08:22N 43°52' E 013°56'310.0
2018-Oct-16 08:03N 43°53' E 013°51'25 9.8
2018-Oct-16 05:30N 44°07' E 013°22'4 9.8
2018-Oct-16 05:03N 44°09' E 013°18'1 9.9
2018-Oct-16 05:00N 44°10' E 013°17'7 9.3
2018-Oct-16 04:13N 44°16' E 013°11'2 9.9
2018-Oct-16 04:03N 44°17' E 013°10'110.3
2018-Oct-16 04:00N 44°18' E 013°10'510.1
2018-Oct-16 03:30N 44°23' E 013°08'510.4
2018-Oct-16 03:01N 44°27' E 013°06'0 9.9
2018-Oct-16 03:00N 44°28' E 013°06'510.0
2018-Oct-16 02:30N 44°32' E 013°04'4 9.7
2018-Oct-16 02:03N 44°36' E 013°02'0 9.7
2018-Oct-16 02:00N 44°37' E 013°02'5 9.4
2018-Oct-16 01:30N 44°41' E 012°60'4 9.2
2018-Oct-16 01:03N 44°45' E 012°58'0 9.4
2018-Oct-16 01:00N 44°46' E 012°57'5 9.6
2018-Oct-16 00:30N 44°50' E 012°54'4 9.7
2018-Oct-16 00:03N 44°54' E 012°51'0 9.2
2018-Oct-16 00:00N 44°54' E 012°51'5 9.9
2018-Oct-15 23:30N 44°58' E 012°48'4 9.8
2018-Oct-15 23:03N 45°02' E 012°45'0 9.8
2018-Oct-15 23:00N 45°03' E 012°44'5 9.8
2018-Oct-15 22:30N 45°07' E 012°41'4 9.7
2018-Oct-15 22:03N 45°09' E 012°36'0 9.7
2018-Oct-15 22:00N 45°10' E 012°35'5 9.5
2018-Oct-15 21:30N 45°13' E 012°31'612.5
2018-Oct-15 21:03N 45°19' E 012°30'113.0
2018-Oct-15 21:00N 45°19' E 012°30'611.4
2018-Oct-15 20:30N 45°25' E 012°27'3 7.6
2018-Oct-15 20:03N 45°26' E 012°23'0 5.7
2018-Oct-15 20:00N 45°25' E 012°22'3 5.2
2018-Oct-15 19:30N 45°26' E 012°19'0 0.6
2018-Oct-15 18:59N 45°26' E 012°18'0 0.0
2018-Oct-15 18:23N 45°26' E 012°18'0 0.0
2018-Oct-15 17:47N 45°26' E 012°18'0 0.0
2018-Oct-15 17:29N 45°26' E 012°18'0 0.0
2018-Oct-15 16:53N 45°26' E 012°18'0 0.0
2018-Oct-15 16:29N 45°26' E 012°18'0 0.0
2018-Oct-15 15:59N 45°26' E 012°18'0 0.0
2018-Oct-15 15:29N 45°26' E 012°18'0 0.0
2018-Oct-15 15:02N 45°26' E 012°18'0 0.0
2018-Oct-15 14:53N 45°26' E 012°18'0 0.0
2018-Oct-15 14:02N 45°26' E 012°18'0 0.0
2018-Oct-15 13:59N 45°26' E 012°18'0 0.0
2018-Oct-15 13:26N 45°26' E 012°18'0 0.0
2018-Oct-15 13:02N 45°26' E 012°18'0 0.0
2018-Oct-15 12:59N 45°26' E 012°18'0 0.0
2018-Oct-15 12:29N 45°26' E 012°18'0 0.0
2018-Oct-15 11:53N 45°26' E 012°18'0 0.0
2018-Oct-15 11:29N 45°26' E 012°18'0 0.0
2018-Oct-15 10:59N 45°26' E 012°18'0 0.0
2018-Oct-15 10:29N 45°26' E 012°18'0 0.0
2018-Oct-15 10:02N 45°26' E 012°18'0 0.1
2018-Oct-15 09:59N 45°26' E 012°18'0 0.0
2018-Oct-15 09:26N 45°26' E 012°18'0 0.0
2018-Oct-15 08:59N 45°26' E 012°18'0 0.0
2018-Oct-15 08:29N 45°26' E 012°18'0 0.0
2018-Oct-15 08:02N 45°26' E 012°18'0 0.1
2018-Oct-15 07:59N 45°26' E 012°18'0 0.0
2018-Oct-15 07:29N 45°26' E 012°18'0 0.0
2018-Oct-15 07:02N 45°26' E 012°18'0 0.0
2018-Oct-15 06:53N 45°26' E 012°18'0 0.0
2018-Oct-15 06:20N 45°26' E 012°18'0 0.0
2018-Oct-15 06:02N 45°26' E 012°18'0 0.1
2018-Oct-15 05:56N 45°26' E 012°18'0 0.0
2018-Oct-15 05:29N 45°26' E 012°18'0 0.0
2018-Oct-15 05:02N 45°26' E 012°18'0 0.0
2018-Oct-15 04:47N 45°26' E 012°18'0 0.0
2018-Oct-15 04:26N 45°26' E 012°18'0 0.0
2018-Oct-15 03:59N 45°26' E 012°18'0 0.0
2018-Oct-15 03:29N 45°26' E 012°18'0 0.0
2018-Oct-15 02:59N 45°26' E 012°18'0 0.0
2018-Oct-15 02:26N 45°26' E 012°18'0 0.0
2018-Oct-15 01:56N 45°26' E 012°18'0 0.0
2018-Oct-15 01:29N 45°26' E 012°18'0 0.0
2018-Oct-15 01:02N 45°26' E 012°18'0 0.0
2018-Oct-15 00:53N 45°26' E 012°18'0 0.0
2018-Oct-15 00:23N 45°26' E 012°18'0 0.0
2018-Oct-15 00:02N 45°26' E 012°18'0 0.1
2018-Oct-14 23:59N 45°26' E 012°18'0 0.0
2018-Oct-14 23:26N 45°26' E 012°18'0 0.0
2018-Oct-14 23:02N 45°26' E 012°18'0 0.0
2018-Oct-14 22:56N 45°26' E 012°18'0 0.0
2018-Oct-14 22:26N 45°26' E 012°18'0 0.0
2018-Oct-14 22:02N 45°26' E 012°18'0 0.0
2018-Oct-14 21:56N 45°26' E 012°18'0 0.0
2018-Oct-14 21:29N 45°26' E 012°18'0 0.0
2018-Oct-14 21:02N 45°26' E 012°18'0 0.1
2018-Oct-14 20:59N 45°26' E 012°18'0 0.0
2018-Oct-14 20:23N 45°26' E 012°18'0 0.0
2018-Oct-14 20:02N 45°26' E 012°18'0 0.0
2018-Oct-14 19:53N 45°26' E 012°18'0 0.0
2018-Oct-14 19:20N 45°26' E 012°18'0 0.0
2018-Oct-14 19:02N 45°26' E 012°18'0 0.0
2018-Oct-14 18:56N 45°26' E 012°18'0 0.0
2018-Oct-14 18:26N 45°26' E 012°18'0 0.0
2018-Oct-14 17:59N 45°26' E 012°18'0 0.0
2018-Oct-14 17:29N 45°26' E 012°18'0 0.0
2018-Oct-14 16:56N 45°26' E 012°18'0 0.0
2018-Oct-14 16:26N 45°26' E 012°18'0 0.0
2018-Oct-14 16:02N 45°26' E 012°18'0 0.0
2018-Oct-14 15:56N 45°26' E 012°18'0 0.0
2018-Oct-14 15:29N 45°26' E 012°18'0 0.0
2018-Oct-14 14:59N 45°26' E 012°18'0 0.0
2018-Oct-14 14:02N 45°26' E 012°18'245.3
2018-Oct-14 14:00N 45°24' E 012°18'2698.2 120 / 71018.010.8 20.812.524.0
2018-Oct-14 13:59N 45°26' E 012°18'0 0.0
2018-Oct-14 13:23N 45°26' E 012°18'0 0.0
2018-Oct-14 13:02N 45°26' E 012°18'0 0.0
2018-Oct-14 12:20N 45°26' E 012°18'0 0.0
2018-Oct-14 11:53N 45°26' E 012°18'0 0.0
2018-Oct-14 11:29N 45°26' E 012°18'0 0.0
2018-Oct-14 11:02N 45°26' E 012°18'0 0.0
2018-Oct-14 10:53N 45°26' E 012°18'0 0.2
2018-Oct-14 10:31N 45°26' E 012°18'2 4.0
2018-Oct-14 10:03N 45°26' E 012°21'0 6.0
2018-Oct-14 10:00N 45°26' E 012°21'3 5.5
2018-Oct-14 09:31N 45°26' E 012°25'4 8.7
2018-Oct-14 09:04N 45°23' E 012°30'113.1
2018-Oct-14 09:01N 45°23' E 012°31'815.5
2018-Oct-14 08:31N 45°16' E 012°34'818.2
2018-Oct-14 08:04N 45°11' E 012°43'116.1
2018-Oct-14 08:01N 45°10' E 012°44'713.4
2018-Oct-14 07:30N 45°05' E 012°50'715.5
2018-Oct-14 07:03N 44°59' E 012°54'118.8
2018-Oct-14 07:00N 44°58' E 012°54'918.9
2018-Oct-14 06:30N 44°49' E 012°60'919.0
2018-Oct-14 06:03N 44°41' E 013°03'119.1
2018-Oct-14 06:00N 44°40' E 013°04'111370272.3
2018-Oct-14 06:00N 44°36' W 013°00'11172307.5 070 / 161020.810.8 20.014.425.0
2018-Oct-14 05:30N 44°31' E 013°07'818.7
2018-Oct-14 05:03N 44°23' E 013°11'118.6
2018-Oct-14 05:00N 44°22' E 013°11'  
Track history (hours):
 
Tides and Currents Weather Stations Pressure Air Temp Water Temp Dewpoint Dewpoint Depression Visibility Wind Speed Wind Dir Waves Ship Positions

Oosterdam

Operator: Holland America Line

Last reported at 2018-Oct-24 05:03 UTC. Time now 2018-Oct-24 05:52 UTC.
Position N 43°44' E 007°29'.

MMSI: 245417000.

Date/timePositionNaut miles runAvg speedWind from/ knotsBaromVisibWave heightAir tempDewpointWater temp
2018-Oct-24 05:03N 43°44' E 007°29'110.6
2018-Oct-24 05:00N 43°44' E 007°30'611.2
2018-Oct-24 04:30N 43°43' E 007°38'511.0
2018-Oct-24 04:03N 43°43' E 007°44'110.9
2018-Oct-24 04:00N 43°43' E 007°45'611.2
2018-Oct-24 03:30N 43°42' E 007°53'511.5
2018-Oct-24 03:03N 43°41' E 008°00'111.2
2018-Oct-24 03:00N 43°41' E 008°01'611.2
2018-Oct-24 02:30N 43°41' E 008°08'511.0
2018-Oct-24 02:03N 43°40' E 008°15'111.3
2018-Oct-24 02:00N 43°40' E 008°16'611.0
2018-Oct-24 01:30N 43°39' E 008°24'511.9
2018-Oct-24 01:03N 43°39' E 008°31'113.0
2018-Oct-24 01:00N 43°39' E 008°32'612.0
2018-Oct-24 00:30N 43°38' E 008°40'4 9.9
2018-Oct-24 00:03N 43°38' E 008°46'110.3
2018-Oct-24 00:00N 43°38' E 008°47'510.2
2018-Oct-23 23:30N 43°37' E 008°54'510.3
2018-Oct-23 23:03N 43°36' E 009°00'110.7
2018-Oct-23 23:00N 43°36' E 009°01'611.4
2018-Oct-23 22:30N 43°35' E 009°09'511.5
2018-Oct-23 22:03N 43°35' E 009°16'111.7
2018-Oct-23 22:00N 43°35' E 009°17'611.6
2018-Oct-23 21:30N 43°34' E 009°25'511.6
2018-Oct-23 21:03N 43°33' E 009°32'111.8
2018-Oct-23 21:00N 43°33' E 009°33'611.5
2018-Oct-23 20:30N 43°33' E 009°40'511.5
2018-Oct-23 20:03N 43°32' E 009°48'111.5
2018-Oct-23 20:00N 43°32' E 009°48'2124.8
2018-Oct-23 20:00N 43°30' E 009°48'612.2 320 / 141019.710.8 19.311.821.1
2018-Oct-23 19:30N 43°31' E 009°56'511.2
2018-Oct-23 19:03N 43°30' E 010°03'111.1
2018-Oct-23 19:00N 43°30' E 010°04'611.0
2018-Oct-23 18:30N 43°31' E 010°11'4 9.9
2018-Oct-23 18:03N 43°32' E 010°17'0 6.2
2018-Oct-23 18:01N 43°32' E 010°17'1 1.6
2018-Oct-23 17:30N 43°33' E 010°18'0 0.0
2018-Oct-23 17:03N 43°33' E 010°18'0 0.0
2018-Oct-23 16:59N 43°33' E 010°18'0 0.0
2018-Oct-23 16:29N 43°33' E 010°18'0 0.0
2018-Oct-23 16:02N 43°33' E 010°18'0 0.1
2018-Oct-23 16:00N 43°33' E 010°18'0 0.0
2018-Oct-23 15:26N 43°33' E 010°18'0 0.0
2018-Oct-23 15:03N 43°33' E 010°18'0 0.0
2018-Oct-23 15:00N 43°33' E 010°18'0 0.0
2018-Oct-23 14:03N 43°33' E 010°18'5102.9
2018-Oct-23 14:00N 43°30' E 010°12'510.4 300 / 121019.010.8 20.011.022.5
2018-Oct-23 13:30N 43°33' E 010°18'0 0.0
2018-Oct-23 13:03N 43°33' E 010°18'0 0.0
2018-Oct-23 13:00N 43°33' E 010°18'0 0.0
2018-Oct-23 12:27N 43°33' E 010°18'0 0.0
2018-Oct-23 12:03N 43°33' E 010°18'0 0.0
2018-Oct-23 12:00N 43°33' E 010°18'0 0.0
2018-Oct-23 11:30N 43°33' E 010°18'0 0.0
2018-Oct-23 11:03N 43°33' E 010°18'0 0.0
2018-Oct-23 11:00N 43°33' E 010°18'0 0.0
2018-Oct-23 10:29N 43°33' E 010°18'0 0.0
2018-Oct-23 10:03N 43°33' E 010°18'0 0.0
2018-Oct-23 10:00N 43°33' E 010°18'0 0.0
2018-Oct-23 09:29N 43°33' E 010°18'0 0.0
2018-Oct-23 09:03N 43°33' E 010°18'0 0.0
2018-Oct-23 08:57N 43°33' E 010°18'0 0.0
2018-Oct-23 08:30N 43°33' E 010°18'0 0.0
2018-Oct-23 08:02N 43°33' E 010°18'0 0.0
2018-Oct-23 07:56N 43°33' E 010°18'0 0.0
2018-Oct-23 07:31N 43°33' E 010°18'0 0.0
2018-Oct-23 07:04N 43°33' E 010°18'0 0.0
2018-Oct-23 07:01N 43°33' E 010°18'0 0.0
2018-Oct-23 06:31N 43°33' E 010°18'0 0.0
2018-Oct-23 06:04N 43°33' E 010°18'0 0.0
2018-Oct-23 06:01N 43°33' E 010°18'0 0.3
2018-Oct-23 05:31N 43°33' E 010°18'2 4.8
2018-Oct-23 05:04N 43°32' E 010°16'0 5.7
2018-Oct-23 05:01N 43°31' E 010°15'5 9.1
2018-Oct-23 04:31N 43°27' E 010°13'512.0
2018-Oct-23 04:04N 43°22' E 010°11'111.8
2018-Oct-23 04:01N 43°21' E 010°11'612.2
2018-Oct-23 03:31N 43°15' E 010°10'612.8
2018-Oct-23 03:04N 43°10' E 010°08'113.0
2018-Oct-23 03:01N 43°09' E 010°08'612.6
2018-Oct-23 02:31N 43°03' E 010°06'612.8
2018-Oct-23 02:04N 42°57' E 010°05'112.7
2018-Oct-23 02:01N 42°57' E 010°04'612.4
2018-Oct-23 01:31N 42°50' E 010°03'511.5
2018-Oct-23 01:04N 42°45' E 010°01'110.4
2018-Oct-23 01:01N 42°45' E 010°01'712.1
2018-Oct-23 00:28N 42°41' E 010°08'612.8
2018-Oct-23 00:01N 42°37' E 010°14'012.3
2018-Oct-23 00:01N 42°37' E 010°14'612.4
2018-Oct-22 23:31N 42°33' E 010°20'612.8
2018-Oct-22 23:04N 42°29' E 010°27'312.6
2018-Oct-22 22:48N 42°27' E 010°30'412.6
2018-Oct-22 22:30N 42°25' E 010°34'54 7.1
2018-Oct-22 15:00N 42°06' E 011°42'0 0.0 020 / 361011.010.8 16.1 6.820.0
2018-Oct-22 06:00N 42°06' E 011°42'10211.3 020 / 141013.010.8 12.0 7.120.0
2018-Oct-21 21:00N 40°54' E 013°18'813.1 340 / 601016.1 2.2 15.312.422.3
2018-Oct-21 20:24N 40°53' E 013°28'615.8
2018-Oct-21 20:03N 40°50' E 013°34'115.9
2018-Oct-21 20:00N 40°49' E 013°34'2110.6
2018-Oct-21 20:00N 40°48' E 013°36'612.6 070 / 301014.010.8 20.012.022.0
2018-Oct-21 19:30N 40°43' E 013°41'715.3
2018-Oct-21 19:03N 40°38' E 013°47'115.3
2018-Oct-21 19:00N 40°37' E 013°48'714.4
2018-Oct-21 18:30N 40°36' E 013°57'614.0
2018-Oct-21 18:03N 40°39' E 014°04'115.2
2018-Oct-21 18:00N 40°39' E 014°05'815.2
2018-Oct-21 17:30N 40°45' E 014°13'613.0
2018-Oct-21 17:04N 40°49' E 014°17'0 6.7
2018-Oct-21 17:01N 40°50' E 014°17'1 1.8
2018-Oct-21 16:30N 40°50' E 014°16'0 0.0
2018-Oct-21 16:03N 40°50' E 014°16'0 0.0
2018-Oct-21 16:00N 40°50' E 014°16'0 0.0
2018-Oct-21 15:30N 40°50' E 014°16'0 0.0
2018-Oct-21 15:03N 40°50' E 014°16'0 0.1
2018-Oct-21 15:00N 40°50' E 014°16'0 0.0
2018-Oct-21 14:03N 40°50' E 014°16'0 0.0
2018-Oct-21 13:30N 40°50' E 014°16'0 0.0
2018-Oct-21 13:03N 40°50' E 014°16'0 0.0
2018-Oct-21 13:00N 40°50' E 014°16'0 0.0
2018-Oct-21 12:30N 40°50' E 014°16'0 0.0
2018-Oct-21 12:03N 40°50' E 014°16'0 0.0
2018-Oct-21 12:00N 40°50' E 014°16'0 0.0
2018-Oct-21 11:30N 40°50' E 014°16'0 0.0
2018-Oct-21 11:01N 40°50' E 014°16'0 0.0
2018-Oct-21 11:00N 40°50' E 014°16'0 0.0
2018-Oct-21 10:30N 40°50' E 014°16'0 0.0
2018-Oct-21 10:03N 40°50' E 014°16'0 0.1
2018-Oct-21 10:00N 40°50' E 014°16'0 0.0
2018-Oct-21 09:30N 40°50' E 014°16'0 0.0
2018-Oct-21 09:03N 40°50' E 014°16'0 0.0
2018-Oct-21 09:00N 40°50' E 014°16'0 0.0
2018-Oct-21 08:30N 40°50' E 014°16'0 0.0
2018-Oct-21 08:03N 40°50' E 014°16'0 0.1
2018-Oct-21 08:00N 40°50' E 014°16'0 0.0
2018-Oct-21 07:30N 40°50' E 014°16'0 0.0
2018-Oct-21 07:03N 40°50' E 014°16'0 0.0
2018-Oct-21 07:00N 40°50' E 014°16'0 0.0
2018-Oct-21 06:30N 40°50' E 014°16'0 0.0
2018-Oct-21 06:03N 40°50' E 014°16'0 0.0
2018-Oct-21 06:00N 40°50' E 014°16'0 0.1
2018-Oct-21 05:30N 40°50' E 014°16'2 3.6
2018-Oct-21 05:03N 40°49' E 014°17'0 8.2
2018-Oct-21 05:00N 40°49' E 014°17'510.8
2018-Oct-21 04:30N 40°44' E 014°14'511.8
2018-Oct-21 04:03N 40°39' E 014°11'111.8
2018-Oct-21 04:00N 40°38' E 014°11'612.0
2018-Oct-21 03:30N 40°33' E 014°08'511.2
2018-Oct-21 03:03N 40°28' E 014°10'112.3
2018-Oct-21 03:00N 40°28' E 014°10'612.1
2018-Oct-21 02:30N 40°22' E 014°13'512.1
2018-Oct-21 02:03N 40°17' E 014°17'112.2
2018-Oct-21 02:00N 40°17' E 014°17'612.2
2018-Oct-21 01:30N 40°11' E 014°21'512.2
2018-Oct-21 01:03N 40°07' E 014°24'111.9
2018-Oct-21 01:00N 40°06' E 014°25'612.1
2018-Oct-21 00:30N 40°01' E 014°28'512.1
2018-Oct-21 00:03N 39°56' E 014°32'112.2
2018-Oct-21 00:00N 39°55' E 014°32'712.1
2018-Oct-20 23:28N 39°50' E 014°36'5512.2
2018-Oct-20 19:00N 39°00' E 015°06'1512.9 290 / 51020.410.8 21.318.523.0
2018-Oct-20 17:49N 38°48' E 015°18'412.5
2018-Oct-20 17:27N 38°44' E 015°21'612.4
2018-Oct-20 17:00N 38°39' E 015°24'3201.2
2018-Oct-20 17:00N 38°36' E 015°24'4 7.5 020 / 71020.110.8 21.618.023.0
2018-Oct-20 16:31N 38°34' E 015°28'612.0
2018-Oct-20 16:03N 38°29' E 015°32'111.9
2018-Oct-20 16:00N 38°29' E 015°32'611.6
2018-Oct-20 15:30N 38°25' E 015°37'511.8
2018-Oct-20 15:03N 38°21' E 015°42'111.9
2018-Oct-20 15:00N 38°20' E 015°42'510.3
2018-Oct-20 14:30N 38°15' E 015°40'611.5
2018-Oct-20 14:00N 38°10' E 015°37'812.4
2018-Oct-20 13:24N 38°03' E 015°35'411.5
2018-Oct-20 13:03N 37°59' E 015°36'111.8
2018-Oct-20 13:00N 37°58' E 015°37'612.2
2018-Oct-20 12:30N 37°53' E 015°41'511.2
2018-Oct-20 12:03N 37°50' E 015°46'112.1
2018-Oct-20 12:00N 37°50' E 015°46'612.3
2018-Oct-20 11:29N 37°49' E 015°54'19112.3
2018-Oct-19 20:00N 37°30' E 019°54'103 4.1 020 / 171016.110.8 21.918.322.4
2018-Oct-18 19:00N 39°12' E 020°12'189 7.9 040 / 51015.710.8 20.814.723.0
2018-Oct-17 19:00N 42°00' E 018°18'48 3.0 320 / 61017.010.8 20.417.221.0
2018-Oct-17 03:00N 42°36' E 017°36'3517.7 110 / 61022.010.8 19.815.921.0
2018-Oct-17 01:00N 42°36' E 016°48'9 8.8 110 / 91022.010.8 20.016.221.0
2018-Oct-17 00:00N 42°36' E 017°00'9 8.8 140 / 71022.010.8 20.316.321.0
2018-Oct-16 23:00N 42°36' E 016°48'4113.8 140 / 151022.010.8 20.715.521.0
2018-Oct-16 20:00N 42°48' E 015°54'2512.5 120 / 111020.910.8 20.717.121.0
2018-Oct-16 18:00N 43°00' E 015°24'83 8.6 120 / 161020.310.8 20.817.221.0
2018-Oct-16 08:22N 43°52' E 013°56'310.0
2018-Oct-16 08:03N 43°53' E 013°51'25 9.8
2018-Oct-16 05:30N 44°07' E 013°22'4 9.8
2018-Oct-16 05:03N 44°09' E 013°18'1 9.9
2018-Oct-16 05:00N 44°10' E 013°17'7 9.3
2018-Oct-16 04:13N 44°16' E 013°11'2 9.9
2018-Oct-16 04:03N 44°17' E 013°10'110.3
2018-Oct-16 04:00N 44°18' E 013°10'510.1
2018-Oct-16 03:30N 44°23' E 013°08'510.4
2018-Oct-16 03:01N 44°27' E 013°06'0 9.9
2018-Oct-16 03:00N 44°28' E 013°06'510.0
2018-Oct-16 02:30N 44°32' E 013°04'4 9.7
2018-Oct-16 02:03N 44°36' E 013°02'0 9.7
2018-Oct-16 02:00N 44°37' E 013°02'5 9.4
2018-Oct-16 01:30N 44°41' E 012°60'4 9.2
2018-Oct-16 01:03N 44°45' E 012°58'0 9.4
2018-Oct-16 01:00N 44°46' E 012°57'5 9.6
2018-Oct-16 00:30N 44°50' E 012°54'4 9.7
2018-Oct-16 00:03N 44°54' E 012°51'0 9.2
2018-Oct-16 00:00N 44°54' E 012°51'5 9.9
2018-Oct-15 23:30N 44°58' E 012°48'4 9.8
2018-Oct-15 23:03N 45°02' E 012°45'0 9.8
2018-Oct-15 23:00N 45°03' E 012°44'5 9.8
2018-Oct-15 22:30N 45°07' E 012°41'4 9.7
2018-Oct-15 22:03N 45°09' E 012°36'0 9.7
2018-Oct-15 22:00N 45°10' E 012°35'5 9.5
2018-Oct-15 21:30N 45°13' E 012°31'612.5
2018-Oct-15 21:03N 45°19' E 012°30'113.0
2018-Oct-15 21:00N 45°19' E 012°30'611.4
2018-Oct-15 20:30N 45°25' E 012°27'3 7.6
2018-Oct-15 20:03N 45°26' E 012°23'0 5.7
2018-Oct-15 20:00N 45°25' E 012°22'3 5.2
2018-Oct-15 19:30N 45°26' E 012°19'0 0.6
2018-Oct-15 18:59N 45°26' E 012°18'0 0.0
2018-Oct-15 18:23N 45°26' E 012°18'0 0.0
2018-Oct-15 17:47N 45°26' E 012°18'0 0.0
2018-Oct-15 17:29N 45°26' E 012°18'0 0.0
2018-Oct-15 16:53N 45°26' E 012°18'0 0.0
2018-Oct-15 16:29N 45°26' E 012°18'0 0.0
2018-Oct-15 15:59N 45°26' E 012°18'0 0.0
2018-Oct-15 15:29N 45°26' E 012°18'0 0.0
2018-Oct-15 15:02N 45°26' E 012°18'0 0.0
2018-Oct-15 14:53N 45°26' E 012°18'0 0.0
2018-Oct-15 14:02N 45°26' E 012°18'0 0.0
2018-Oct-15 13:59N 45°26' E 012°18'0 0.0
2018-Oct-15 13:26N 45°26' E 012°18'0 0.0
2018-Oct-15 13:02N 45°26' E 012°18'0 0.0
2018-Oct-15 12:59N 45°26' E 012°18'0 0.0
2018-Oct-15 12:29N 45°26' E 012°18'0 0.0
2018-Oct-15 11:53N 45°26' E 012°18'0 0.0
2018-Oct-15 11:29N 45°26' E 012°18'0 0.0
2018-Oct-15 10:59N 45°26' E 012°18'0 0.0
2018-Oct-15 10:29N 45°26' E 012°18'0 0.0
2018-Oct-15 10:02N 45°26' E 012°18'0 0.1
2018-Oct-15 09:59N 45°26' E 012°18'0 0.0
2018-Oct-15 09:26N 45°26' E 012°18'0 0.0
2018-Oct-15 08:59N 45°26' E 012°18'0 0.0
2018-Oct-15 08:29N 45°26' E 012°18'0 0.0
2018-Oct-15 08:02N 45°26' E 012°18'0 0.1
2018-Oct-15 07:59N 45°26' E 012°18'0 0.0
2018-Oct-15 07:29N 45°26' E 012°18'0 0.0
2018-Oct-15 07:02N 45°26' E 012°18'0 0.0
2018-Oct-15 06:53N 45°26' E 012°18'0 0.0
2018-Oct-15 06:20N 45°26' E 012°18'0 0.0
2018-Oct-15 06:02N 45°26' E 012°18'0 0.1
2018-Oct-15 05:56N 45°26' E 012°18'0 0.0
2018-Oct-15 05:29N 45°26' E 012°18'0 0.0
2018-Oct-15 05:02N 45°26' E 012°18'0 0.0
2018-Oct-15 04:47N 45°26' E 012°18'0 0.0
2018-Oct-15 04:26N 45°26' E 012°18'0 0.0
2018-Oct-15 03:59N 45°26' E 012°18'0 0.0
2018-Oct-15 03:29N 45°26' E 012°18'0 0.0
2018-Oct-15 02:59N 45°26' E 012°18'0 0.0
2018-Oct-15 02:26N 45°26' E 012°18'0 0.0
2018-Oct-15 01:56N 45°26' E 012°18'0 0.0
2018-Oct-15 01:29N 45°26' E 012°18'0 0.0
2018-Oct-15 01:02N 45°26' E 012°18'0 0.0
2018-Oct-15 00:53N 45°26' E 012°18'0 0.0
2018-Oct-15 00:23N 45°26' E 012°18'0 0.0
2018-Oct-15 00:02N 45°26' E 012°18'0 0.1
2018-Oct-14 23:59N 45°26' E 012°18'0 0.0
2018-Oct-14 23:26N 45°26' E 012°18'0 0.0
2018-Oct-14 23:02N 45°26' E 012°18'0 0.0
2018-Oct-14 22:56N 45°26' E 012°18'0 0.0
2018-Oct-14 22:26N 45°26' E 012°18'0 0.0
2018-Oct-14 22:02N 45°26' E 012°18'0 0.0
2018-Oct-14 21:56N 45°26' E 012°18'0 0.0
2018-Oct-14 21:29N 45°26' E 012°18'0 0.0
2018-Oct-14 21:02N 45°26' E 012°18'0 0.1
2018-Oct-14 20:59N 45°26' E 012°18'0 0.0
2018-Oct-14 20:23N 45°26' E 012°18'0 0.0
2018-Oct-14 20:02N 45°26' E 012°18'0 0.0
2018-Oct-14 19:53N 45°26' E 012°18'0 0.0
2018-Oct-14 19:20N 45°26' E 012°18'0 0.0
2018-Oct-14 19:02N 45°26' E 012°18'0 0.0
2018-Oct-14 18:56N 45°26' E 012°18'0 0.0
2018-Oct-14 18:26N 45°26' E 012°18'0 0.0
2018-Oct-14 17:59N 45°26' E 012°18'0 0.0
2018-Oct-14 17:29N 45°26' E 012°18'0 0.0
2018-Oct-14 16:56N 45°26' E 012°18'0 0.0
2018-Oct-14 16:26N 45°26' E 012°18'0 0.0
2018-Oct-14 16:02N 45°26' E 012°18'0 0.0
2018-Oct-14 15:56N 45°26' E 012°18'0 0.0
2018-Oct-14 15:29N 45°26' E 012°18'0 0.0
2018-Oct-14 14:59N 45°26' E 012°18'0 0.0
2018-Oct-14 14:02N 45°26' E 012°18'245.3
2018-Oct-14 14:00N 45°24' E 012°18'2698.2 120 / 71018.010.8 20.812.524.0
2018-Oct-14 13:59N 45°26' E 012°18'0 0.0
2018-Oct-14 13:23N 45°26' E 012°18'0 0.0
2018-Oct-14 13:02N 45°26' E 012°18'0 0.0
2018-Oct-14 12:20N 45°26' E 012°18'0 0.0
2018-Oct-14 11:53N 45°26' E 012°18'0 0.0
2018-Oct-14 11:29N 45°26' E 012°18'0 0.0
2018-Oct-14 11:02N 45°26' E 012°18'0 0.0
2018-Oct-14 10:53N 45°26' E 012°18'0 0.2
2018-Oct-14 10:31N 45°26' E 012°18'2 4.0
2018-Oct-14 10:03N 45°26' E 012°21'0 6.0
2018-Oct-14 10:00N 45°26' E 012°21'3 5.5
2018-Oct-14 09:31N 45°26' E 012°25'4 8.7
2018-Oct-14 09:04N 45°23' E 012°30'113.1
2018-Oct-14 09:01N 45°23' E 012°31'815.5
2018-Oct-14 08:31N 45°16' E 012°34'818.2
2018-Oct-14 08:04N 45°11' E 012°43'116.1
2018-Oct-14 08:01N 45°10' E 012°44'713.4
2018-Oct-14 07:30N 45°05' E 012°50'715.5
2018-Oct-14 07:03N 44°59' E 012°54'118.8
2018-Oct-14 07:00N 44°58' E 012°54'918.9
2018-Oct-14 06:30N 44°49' E 012°60'919.0
2018-Oct-14 06:03N 44°41' E 013°03'119.1
2018-Oct-14 06:00N 44°40' E 013°04'111370272.3
2018-Oct-14 06:00N 44°36' W 013°00'11172307.5 070 / 161020.810.8 20.014.425.0
2018-Oct-14 05:30N 44°31' E 013°07'818.7
2018-Oct-14 05:03N 44°23' E 013°11'118.6
2018-Oct-14 05:00N 44°22' E 013°11'  

Dump ship's entire track history